sensor_id;sensor_type;location;lat;lon;timestamp;P1;durP1;ratioP1;P2;durP2;ratioP2
40951;SDS011;26682;51.660;19.338;2023-02-11T00:04:09;35.60;;;18.92;;
40951;SDS011;26682;51.660;19.338;2023-02-11T00:06:52;29.95;;;16.30;;
40951;SDS011;26682;51.660;19.338;2023-02-11T00:09:36;36.38;;;20.73;;
40951;SDS011;26682;51.660;19.338;2023-02-11T00:12:18;32.70;;;18.48;;
40951;SDS011;26682;51.660;19.338;2023-02-11T00:15:01;34.13;;;18.58;;
40951;SDS011;26682;51.660;19.338;2023-02-11T00:17:43;36.47;;;17.80;;
40951;SDS011;26682;51.660;19.338;2023-02-11T00:20:26;38.90;;;19.88;;
40951;SDS011;26682;51.660;19.338;2023-02-11T00:23:09;37.45;;;18.77;;
40951;SDS011;26682;51.660;19.338;2023-02-11T00:25:51;45.75;;;20.27;;
40951;SDS011;26682;51.660;19.338;2023-02-11T00:28:34;40.13;;;19.77;;
40951;SDS011;26682;51.660;19.338;2023-02-11T00:31:17;38.17;;;19.40;;
40951;SDS011;26682;51.660;19.338;2023-02-11T00:34:02;38.55;;;19.63;;
40951;SDS011;26682;51.660;19.338;2023-02-11T00:36:44;38.78;;;19.08;;
40951;SDS011;26682;51.660;19.338;2023-02-11T00:39:28;36.00;;;20.00;;
40951;SDS011;26682;51.660;19.338;2023-02-11T00:42:12;42.67;;;21.88;;
40951;SDS011;26682;51.660;19.338;2023-02-11T00:44:55;39.08;;;21.20;;
40951;SDS011;26682;51.660;19.338;2023-02-11T00:47:38;40.78;;;22.05;;
40951;SDS011;26682;51.660;19.338;2023-02-11T00:50:20;51.63;;;26.95;;
40951;SDS011;26682;51.660;19.338;2023-02-11T00:53:03;41.65;;;23.60;;
40951;SDS011;26682;51.660;19.338;2023-02-11T00:55:45;38.15;;;22.95;;
40951;SDS011;26682;51.660;19.338;2023-02-11T00:58:28;42.50;;;22.02;;
40951;SDS011;26682;51.660;19.338;2023-02-11T01:01:11;41.83;;;22.52;;
40951;SDS011;26682;51.660;19.338;2023-02-11T01:03:56;39.55;;;23.48;;
40951;SDS011;26682;51.660;19.338;2023-02-11T01:06:39;37.88;;;21.75;;
40951;SDS011;26682;51.660;19.338;2023-02-11T01:09:21;39.45;;;20.92;;
40951;SDS011;26682;51.660;19.338;2023-02-11T01:12:03;44.75;;;22.88;;
40951;SDS011;26682;51.660;19.338;2023-02-11T01:14:46;41.92;;;20.70;;
40951;SDS011;26682;51.660;19.338;2023-02-11T01:17:29;37.58;;;21.60;;
40951;SDS011;26682;51.660;19.338;2023-02-11T01:20:16;41.53;;;22.25;;
40951;SDS011;26682;51.660;19.338;2023-02-11T01:23:01;37.85;;;21.90;;
40951;SDS011;26682;51.660;19.338;2023-02-11T01:25:44;43.42;;;22.40;;
40951;SDS011;26682;51.660;19.338;2023-02-11T01:28:27;34.38;;;22.00;;
40951;SDS011;26682;51.660;19.338;2023-02-11T01:31:13;40.53;;;23.83;;
40951;SDS011;26682;51.660;19.338;2023-02-11T01:33:56;38.17;;;21.23;;
40951;SDS011;26682;51.660;19.338;2023-02-11T01:36:38;36.00;;;20.33;;
40951;SDS011;26682;51.660;19.338;2023-02-11T01:39:21;40.15;;;21.45;;
40951;SDS011;26682;51.660;19.338;2023-02-11T01:42:03;36.33;;;21.15;;
40951;SDS011;26682;51.660;19.338;2023-02-11T01:44:49;42.42;;;21.38;;
40951;SDS011;26682;51.660;19.338;2023-02-11T01:47:33;38.00;;;23.15;;
40951;SDS011;26682;51.660;19.338;2023-02-11T01:50:15;42.45;;;22.27;;
40951;SDS011;26682;51.660;19.338;2023-02-11T01:53:03;45.83;;;20.95;;
40951;SDS011;26682;51.660;19.338;2023-02-11T01:56:05;40.63;;;21.42;;
40951;SDS011;26682;51.660;19.338;2023-02-11T02:02:26;38.85;;;21.17;;
40951;SDS011;26682;51.660;19.338;2023-02-11T02:05:31;37.63;;;19.92;;
40951;SDS011;26682;51.660;19.338;2023-02-11T02:11:06;43.50;;;23.80;;
40951;SDS011;26682;51.660;19.338;2023-02-11T02:13:50;44.72;;;21.92;;
40951;SDS011;26682;51.660;19.338;2023-02-11T02:16:35;40.92;;;21.55;;
40951;SDS011;26682;51.660;19.338;2023-02-11T02:19:23;35.70;;;21.88;;
40951;SDS011;26682;51.660;19.338;2023-02-11T02:22:41;33.03;;;19.58;;
40951;SDS011;26682;51.660;19.338;2023-02-11T02:25:46;37.67;;;20.10;;
40951;SDS011;26682;51.660;19.338;2023-02-11T02:28:43;37.43;;;19.53;;
40951;SDS011;26682;51.660;19.338;2023-02-11T02:37:23;38.90;;;20.75;;
40951;SDS011;26682;51.660;19.338;2023-02-11T02:43:40;33.17;;;18.63;;
40951;SDS011;26682;51.660;19.338;2023-02-11T02:46:26;36.15;;;19.55;;
40951;SDS011;26682;51.660;19.338;2023-02-11T02:49:11;36.35;;;19.05;;
40951;SDS011;26682;51.660;19.338;2023-02-11T03:04:14;33.10;;;17.90;;
40951;SDS011;26682;51.660;19.338;2023-02-11T03:10:32;33.55;;;17.75;;
40951;SDS011;26682;51.660;19.338;2023-02-11T03:13:19;29.50;;;17.33;;
40951;SDS011;26682;51.660;19.338;2023-02-11T03:19:01;31.60;;;17.80;;
40951;SDS011;26682;51.660;19.338;2023-02-11T03:21:48;32.67;;;19.23;;
40951;SDS011;26682;51.660;19.338;2023-02-11T03:24:33;37.88;;;22.20;;
40951;SDS011;26682;51.660;19.338;2023-02-11T03:27:43;38.63;;;21.88;;
40951;SDS011;26682;51.660;19.338;2023-02-11T03:30:43;36.88;;;20.83;;
40951;SDS011;26682;51.660;19.338;2023-02-11T03:33:34;30.88;;;17.77;;
40951;SDS011;26682;51.660;19.338;2023-02-11T03:36:50;32.08;;;19.20;;
40951;SDS011;26682;51.660;19.338;2023-02-11T03:39:58;32.67;;;18.77;;
40951;SDS011;26682;51.660;19.338;2023-02-11T03:42:51;35.45;;;19.77;;
40951;SDS011;26682;51.660;19.338;2023-02-11T03:45:42;33.42;;;20.27;;
40951;SDS011;26682;51.660;19.338;2023-02-11T03:48:30;32.83;;;15.93;;
40951;SDS011;26682;51.660;19.338;2023-02-11T03:51:16;32.05;;;18.33;;
40951;SDS011;26682;51.660;19.338;2023-02-11T03:54:05;41.17;;;19.98;;
40951;SDS011;26682;51.660;19.338;2023-02-11T03:56:52;35.45;;;20.23;;
40951;SDS011;26682;51.660;19.338;2023-02-11T04:02:38;37.90;;;21.45;;
40951;SDS011;26682;51.660;19.338;2023-02-11T04:05:21;32.83;;;20.27;;
40951;SDS011;26682;51.660;19.338;2023-02-11T04:08:04;38.67;;;21.67;;
40951;SDS011;26682;51.660;19.338;2023-02-11T04:10:47;42.33;;;23.20;;
40951;SDS011;26682;51.660;19.338;2023-02-11T04:13:29;38.92;;;23.02;;
40951;SDS011;26682;51.660;19.338;2023-02-11T04:16:11;36.50;;;21.33;;
40951;SDS011;26682;51.660;19.338;2023-02-11T04:18:54;38.88;;;23.13;;
40951;SDS011;26682;51.660;19.338;2023-02-11T04:21:36;37.22;;;21.63;;
40951;SDS011;26682;51.660;19.338;2023-02-11T04:24:19;36.00;;;20.95;;
40951;SDS011;26682;51.660;19.338;2023-02-11T04:27:01;39.60;;;20.55;;
40951;SDS011;26682;51.660;19.338;2023-02-11T04:29:44;29.38;;;16.55;;
40951;SDS011;26682;51.660;19.338;2023-02-11T04:32:26;37.83;;;21.08;;
40951;SDS011;26682;51.660;19.338;2023-02-11T04:35:08;37.25;;;22.17;;
40951;SDS011;26682;51.660;19.338;2023-02-11T04:37:51;34.67;;;20.60;;
40951;SDS011;26682;51.660;19.338;2023-02-11T04:40:33;34.78;;;20.58;;
40951;SDS011;26682;51.660;19.338;2023-02-11T04:43:16;40.60;;;21.42;;
40951;SDS011;26682;51.660;19.338;2023-02-11T04:45:58;40.00;;;22.95;;
40951;SDS011;26682;51.660;19.338;2023-02-11T04:48:40;38.42;;;22.30;;
40951;SDS011;26682;51.660;19.338;2023-02-11T04:51:23;37.95;;;21.70;;
40951;SDS011;26682;51.660;19.338;2023-02-11T04:54:05;38.80;;;21.77;;
40951;SDS011;26682;51.660;19.338;2023-02-11T04:56:48;38.30;;;19.55;;
40951;SDS011;26682;51.660;19.338;2023-02-11T04:59:31;41.92;;;22.50;;
40951;SDS011;26682;51.660;19.338;2023-02-11T05:02:14;41.03;;;22.80;;
40951;SDS011;26682;51.660;19.338;2023-02-11T05:04:56;45.92;;;24.77;;
40951;SDS011;26682;51.660;19.338;2023-02-11T05:07:38;41.95;;;24.40;;
40951;SDS011;26682;51.660;19.338;2023-02-11T05:10:20;40.50;;;24.92;;
40951;SDS011;26682;51.660;19.338;2023-02-11T05:13:03;38.72;;;23.55;;
40951;SDS011;26682;51.660;19.338;2023-02-11T05:15:45;38.88;;;21.77;;
40951;SDS011;26682;51.660;19.338;2023-02-11T05:18:28;38.15;;;22.75;;
40951;SDS011;26682;51.660;19.338;2023-02-11T05:21:11;38.33;;;21.98;;
40951;SDS011;26682;51.660;19.338;2023-02-11T05:23:58;40.30;;;23.42;;
40951;SDS011;26682;51.660;19.338;2023-02-11T05:26:40;38.20;;;21.42;;
40951;SDS011;26682;51.660;19.338;2023-02-11T05:29:23;39.15;;;22.73;;
40951;SDS011;26682;51.660;19.338;2023-02-11T05:32:05;39.55;;;22.52;;
40951;SDS011;26682;51.660;19.338;2023-02-11T05:34:49;37.75;;;23.50;;
40951;SDS011;26682;51.660;19.338;2023-02-11T05:37:31;41.95;;;24.40;;
40951;SDS011;26682;51.660;19.338;2023-02-11T05:40:14;50.67;;;29.00;;
40951;SDS011;26682;51.660;19.338;2023-02-11T05:42:57;47.78;;;29.65;;
40951;SDS011;26682;51.660;19.338;2023-02-11T05:45:39;39.58;;;23.95;;
40951;SDS011;26682;51.660;19.338;2023-02-11T05:48:22;42.30;;;25.65;;
40951;SDS011;26682;51.660;19.338;2023-02-11T05:51:04;40.38;;;25.17;;
40951;SDS011;26682;51.660;19.338;2023-02-11T05:53:46;44.67;;;25.67;;
40951;SDS011;26682;51.660;19.338;2023-02-11T05:56:29;38.97;;;20.17;;
40951;SDS011;26682;51.660;19.338;2023-02-11T05:59:14;40.33;;;24.75;;
40951;SDS011;26682;51.660;19.338;2023-02-11T06:01:57;40.43;;;25.43;;
40951;SDS011;26682;51.660;19.338;2023-02-11T06:04:39;44.25;;;25.55;;
40951;SDS011;26682;51.660;19.338;2023-02-11T06:07:22;44.65;;;25.98;;
40951;SDS011;26682;51.660;19.338;2023-02-11T06:10:05;42.50;;;25.75;;
40951;SDS011;26682;51.660;19.338;2023-02-11T06:12:48;46.47;;;25.85;;
40951;SDS011;26682;51.660;19.338;2023-02-11T06:15:30;47.58;;;28.10;;
40951;SDS011;26682;51.660;19.338;2023-02-11T06:18:13;41.10;;;25.60;;
40951;SDS011;26682;51.660;19.338;2023-02-11T06:20:56;42.35;;;26.27;;
40951;SDS011;26682;51.660;19.338;2023-02-11T06:23:38;45.38;;;25.50;;
40951;SDS011;26682;51.660;19.338;2023-02-11T06:26:21;41.80;;;25.95;;
40951;SDS011;26682;51.660;19.338;2023-02-11T06:29:04;40.08;;;23.63;;
40951;SDS011;26682;51.660;19.338;2023-02-11T06:31:47;38.85;;;21.63;;
40951;SDS011;26682;51.660;19.338;2023-02-11T06:34:30;39.22;;;24.33;;
40951;SDS011;26682;51.660;19.338;2023-02-11T06:37:12;44.33;;;25.58;;
40951;SDS011;26682;51.660;19.338;2023-02-11T06:39:55;42.95;;;26.40;;
40951;SDS011;26682;51.660;19.338;2023-02-11T06:42:37;42.58;;;25.75;;
40951;SDS011;26682;51.660;19.338;2023-02-11T06:45:20;45.13;;;26.88;;
40951;SDS011;26682;51.660;19.338;2023-02-11T06:48:02;47.70;;;27.38;;
40951;SDS011;26682;51.660;19.338;2023-02-11T06:50:45;46.33;;;26.45;;
40951;SDS011;26682;51.660;19.338;2023-02-11T06:53:28;49.22;;;28.80;;
40951;SDS011;26682;51.660;19.338;2023-02-11T06:56:12;42.92;;;27.40;;
40951;SDS011;26682;51.660;19.338;2023-02-11T06:58:57;51.58;;;27.80;;
40951;SDS011;26682;51.660;19.338;2023-02-11T07:01:42;43.10;;;26.85;;
40951;SDS011;26682;51.660;19.338;2023-02-11T07:04:25;45.88;;;27.75;;
40951;SDS011;26682;51.660;19.338;2023-02-11T07:07:08;49.83;;;28.38;;
40951;SDS011;26682;51.660;19.338;2023-02-11T07:09:50;45.20;;;27.73;;
40951;SDS011;26682;51.660;19.338;2023-02-11T07:12:33;44.60;;;28.80;;
40951;SDS011;26682;51.660;19.338;2023-02-11T07:15:16;39.85;;;25.23;;
40951;SDS011;26682;51.660;19.338;2023-02-11T07:17:59;42.75;;;27.02;;
40951;SDS011;26682;51.660;19.338;2023-02-11T07:20:41;45.33;;;27.02;;
40951;SDS011;26682;51.660;19.338;2023-02-11T07:23:24;49.75;;;28.77;;
40951;SDS011;26682;51.660;19.338;2023-02-11T07:26:08;49.53;;;26.45;;
40951;SDS011;26682;51.660;19.338;2023-02-11T07:28:52;51.35;;;26.25;;
40951;SDS011;26682;51.660;19.338;2023-02-11T07:31:34;48.08;;;28.88;;
40951;SDS011;26682;51.660;19.338;2023-02-11T07:34:17;45.60;;;29.58;;
40951;SDS011;26682;51.660;19.338;2023-02-11T07:37:00;45.75;;;31.33;;
40951;SDS011;26682;51.660;19.338;2023-02-11T07:39:42;47.20;;;28.58;;
40951;SDS011;26682;51.660;19.338;2023-02-11T07:42:25;51.00;;;28.90;;
40951;SDS011;26682;51.660;19.338;2023-02-11T07:45:08;53.25;;;28.70;;
40951;SDS011;26682;51.660;19.338;2023-02-11T07:47:50;42.67;;;27.25;;
40951;SDS011;26682;51.660;19.338;2023-02-11T07:50:33;53.25;;;31.15;;
40951;SDS011;26682;51.660;19.338;2023-02-11T07:53:15;56.35;;;33.22;;
40951;SDS011;26682;51.660;19.338;2023-02-11T07:55:58;50.92;;;29.48;;
40951;SDS011;26682;51.660;19.338;2023-02-11T07:58:40;52.72;;;27.85;;
40951;SDS011;26682;51.660;19.338;2023-02-11T08:01:24;54.92;;;32.25;;
40951;SDS011;26682;51.660;19.338;2023-02-11T08:04:09;56.53;;;31.67;;
40951;SDS011;26682;51.660;19.338;2023-02-11T08:06:52;55.05;;;33.08;;
40951;SDS011;26682;51.660;19.338;2023-02-11T08:09:39;60.53;;;33.67;;
40951;SDS011;26682;51.660;19.338;2023-02-11T08:12:22;59.08;;;33.10;;
40951;SDS011;26682;51.660;19.338;2023-02-11T08:15:04;55.80;;;34.03;;
40951;SDS011;26682;51.660;19.338;2023-02-11T08:17:47;61.67;;;35.22;;
40951;SDS011;26682;51.660;19.338;2023-02-11T08:20:30;62.17;;;37.35;;
40951;SDS011;26682;51.660;19.338;2023-02-11T08:23:13;66.22;;;37.10;;
40951;SDS011;26682;51.660;19.338;2023-02-11T08:25:59;73.45;;;39.17;;
40951;SDS011;26682;51.660;19.338;2023-02-11T08:28:43;77.72;;;41.75;;
40951;SDS011;26682;51.660;19.338;2023-02-11T08:31:28;75.97;;;41.53;;
40951;SDS011;26682;51.660;19.338;2023-02-11T08:34:14;78.50;;;44.10;;
40951;SDS011;26682;51.660;19.338;2023-02-11T08:36:59;69.28;;;40.22;;
40951;SDS011;26682;51.660;19.338;2023-02-11T08:39:42;69.93;;;40.35;;
40951;SDS011;26682;51.660;19.338;2023-02-11T08:42:25;64.45;;;38.40;;
40951;SDS011;26682;51.660;19.338;2023-02-11T08:45:08;70.38;;;40.15;;
40951;SDS011;26682;51.660;19.338;2023-02-11T08:47:51;68.25;;;37.90;;
40951;SDS011;26682;51.660;19.338;2023-02-11T08:50:33;72.22;;;41.25;;
40951;SDS011;26682;51.660;19.338;2023-02-11T08:53:19;70.80;;;39.22;;
40951;SDS011;26682;51.660;19.338;2023-02-11T08:56:02;75.22;;;40.95;;
40951;SDS011;26682;51.660;19.338;2023-02-11T08:58:45;78.90;;;43.33;;
40951;SDS011;26682;51.660;19.338;2023-02-11T09:01:28;74.75;;;42.38;;
40951;SDS011;26682;51.660;19.338;2023-02-11T09:04:12;75.72;;;41.13;;
40951;SDS011;26682;51.660;19.338;2023-02-11T09:06:54;74.82;;;42.88;;
40951;SDS011;26682;51.660;19.338;2023-02-11T09:09:37;74.05;;;40.95;;
40951;SDS011;26682;51.660;19.338;2023-02-11T09:12:20;90.53;;;51.00;;
40951;SDS011;26682;51.660;19.338;2023-02-11T09:15:02;86.28;;;45.92;;
40951;SDS011;26682;51.660;19.338;2023-02-11T09:17:45;79.82;;;42.53;;
40951;SDS011;26682;51.660;19.338;2023-02-11T09:20:27;81.45;;;44.55;;
40951;SDS011;26682;51.660;19.338;2023-02-11T09:23:10;80.22;;;45.53;;
40951;SDS011;26682;51.660;19.338;2023-02-11T09:25:52;96.28;;;52.58;;
40951;SDS011;26682;51.660;19.338;2023-02-11T09:28:35;72.28;;;40.40;;
40951;SDS011;26682;51.660;19.338;2023-02-11T09:31:19;65.63;;;33.90;;
40951;SDS011;26682;51.660;19.338;2023-02-11T09:34:04;75.20;;;41.03;;
40951;SDS011;26682;51.660;19.338;2023-02-11T09:36:47;82.88;;;43.67;;
40951;SDS011;26682;51.660;19.338;2023-02-11T09:39:30;87.00;;;42.25;;
40951;SDS011;26682;51.660;19.338;2023-02-11T09:44:58;78.20;;;40.97;;
40951;SDS011;26682;51.660;19.338;2023-02-11T09:47:44;78.75;;;44.67;;
40951;SDS011;26682;51.660;19.338;2023-02-11T09:50:40;76.88;;;42.50;;
40951;SDS011;26682;51.660;19.338;2023-02-11T09:53:28;77.28;;;43.60;;
40951;SDS011;26682;51.660;19.338;2023-02-11T09:56:14;74.35;;;37.78;;
40951;SDS011;26682;51.660;19.338;2023-02-11T09:58:57;83.30;;;42.97;;
40951;SDS011;26682;51.660;19.338;2023-02-11T10:04:43;90.03;;;45.83;;
40951;SDS011;26682;51.660;19.338;2023-02-11T10:10:51;86.18;;;45.38;;
40951;SDS011;26682;51.660;19.338;2023-02-11T10:19:39;83.75;;;44.50;;
40951;SDS011;26682;51.660;19.338;2023-02-11T10:22:54;87.80;;;45.95;;
40951;SDS011;26682;51.660;19.338;2023-02-11T10:25:42;82.18;;;45.97;;
40951;SDS011;26682;51.660;19.338;2023-02-11T10:28:31;87.45;;;46.65;;
40951;SDS011;26682;51.660;19.338;2023-02-11T10:31:23;87.03;;;46.75;;
40951;SDS011;26682;51.660;19.338;2023-02-11T10:34:09;89.38;;;47.58;;
40951;SDS011;26682;51.660;19.338;2023-02-11T10:36:54;93.25;;;48.00;;
40951;SDS011;26682;51.660;19.338;2023-02-11T10:39:36;88.97;;;48.38;;
40951;SDS011;26682;51.660;19.338;2023-02-11T10:42:20;95.45;;;50.40;;
40951;SDS011;26682;51.660;19.338;2023-02-11T10:45:03;84.97;;;46.30;;
40951;SDS011;26682;51.660;19.338;2023-02-11T10:47:48;132.35;;;76.35;;
40951;SDS011;26682;51.660;19.338;2023-02-11T10:50:32;124.35;;;70.45;;
40951;SDS011;26682;51.660;19.338;2023-02-11T10:53:17;234.60;;;152.02;;
40951;SDS011;26682;51.660;19.338;2023-02-11T10:56:02;98.07;;;52.87;;
40951;SDS011;26682;51.660;19.338;2023-02-11T10:58:52;183.23;;;111.63;;
40951;SDS011;26682;51.660;19.338;2023-02-11T11:02:26;116.88;;;60.38;;
40951;SDS011;26682;51.660;19.338;2023-02-11T11:05:17;91.32;;;48.17;;
40951;SDS011;26682;51.660;19.338;2023-02-11T11:08:04;90.13;;;47.67;;
40951;SDS011;26682;51.660;19.338;2023-02-11T11:11:00;112.63;;;60.20;;
40951;SDS011;26682;51.660;19.338;2023-02-11T11:16:34;95.20;;;50.53;;
40951;SDS011;26682;51.660;19.338;2023-02-11T11:19:23;97.07;;;50.88;;
40951;SDS011;26682;51.660;19.338;2023-02-11T11:22:09;99.65;;;51.38;;
40951;SDS011;26682;51.660;19.338;2023-02-11T11:25:03;96.40;;;48.25;;
40951;SDS011;26682;51.660;19.338;2023-02-11T11:27:50;96.03;;;49.60;;
40951;SDS011;26682;51.660;19.338;2023-02-11T11:30:38;93.90;;;47.28;;
40951;SDS011;26682;51.660;19.338;2023-02-11T11:33:25;104.15;;;49.35;;
40951;SDS011;26682;51.660;19.338;2023-02-11T11:36:12;93.75;;;46.88;;
40951;SDS011;26682;51.660;19.338;2023-02-11T11:39:09;82.55;;;39.78;;
40951;SDS011;26682;51.660;19.338;2023-02-11T11:42:21;88.18;;;44.88;;
40951;SDS011;26682;51.660;19.338;2023-02-11T11:51:19;93.70;;;46.78;;
40951;SDS011;26682;51.660;19.338;2023-02-11T11:54:05;96.25;;;49.97;;
40951;SDS011;26682;51.660;19.338;2023-02-11T11:56:55;92.53;;;42.85;;
40951;SDS011;26682;51.660;19.338;2023-02-11T11:59:45;97.38;;;47.63;;
40951;SDS011;26682;51.660;19.338;2023-02-11T12:11:35;100.82;;;47.42;;
40951;SDS011;26682;51.660;19.338;2023-02-11T12:17:02;116.13;;;58.00;;
40951;SDS011;26682;51.660;19.338;2023-02-11T12:35:24;118.18;;;55.67;;
40951;SDS011;26682;51.660;19.338;2023-02-11T12:56:40;123.22;;;56.30;;
40951;SDS011;26682;51.660;19.338;2023-02-11T12:59:34;130.18;;;59.25;;
40951;SDS011;26682;51.660;19.338;2023-02-11T13:05:28;113.15;;;52.42;;
40951;SDS011;26682;51.660;19.338;2023-02-11T13:11:19;98.47;;;44.33;;
40951;SDS011;26682;51.660;19.338;2023-02-11T13:16:57;97.53;;;48.67;;
40951;SDS011;26682;51.660;19.338;2023-02-11T13:19:43;105.60;;;48.65;;
40951;SDS011;26682;51.660;19.338;2023-02-11T13:22:42;106.10;;;50.03;;
40951;SDS011;26682;51.660;19.338;2023-02-11T13:26:18;108.90;;;53.42;;
40951;SDS011;26682;51.660;19.338;2023-02-11T13:28:53;99.00;;;46.13;;
40951;SDS011;26682;51.660;19.338;2023-02-11T13:31:45;114.00;;;58.05;;
40951;SDS011;26682;51.660;19.338;2023-02-11T13:43:00;106.32;;;48.17;;
40951;SDS011;26682;51.660;19.338;2023-02-11T13:45:47;97.63;;;48.30;;
40951;SDS011;26682;51.660;19.338;2023-02-11T13:51:36;89.00;;;45.05;;
40951;SDS011;26682;51.660;19.338;2023-02-11T13:54:25;78.32;;;37.80;;
40951;SDS011;26682;51.660;19.338;2023-02-11T14:03:27;97.30;;;50.08;;
40951;SDS011;26682;51.660;19.338;2023-02-11T14:06:32;100.57;;;48.83;;
40951;SDS011;26682;51.660;19.338;2023-02-11T14:09:35;89.35;;;45.53;;
40951;SDS011;26682;51.660;19.338;2023-02-11T14:12:30;93.28;;;48.28;;
40951;SDS011;26682;51.660;19.338;2023-02-11T14:18:02;94.53;;;47.50;;
40951;SDS011;26682;51.660;19.338;2023-02-11T14:21:11;87.40;;;44.65;;
40951;SDS011;26682;51.660;19.338;2023-02-11T14:26:52;94.30;;;48.05;;
40951;SDS011;26682;51.660;19.338;2023-02-11T14:38:54;93.55;;;49.42;;
40951;SDS011;26682;51.660;19.338;2023-02-11T14:41:49;91.43;;;48.25;;
40951;SDS011;26682;51.660;19.338;2023-02-11T14:44:31;94.68;;;47.85;;
40951;SDS011;26682;51.660;19.338;2023-02-11T14:47:18;95.80;;;49.25;;
40951;SDS011;26682;51.660;19.338;2023-02-11T14:50:05;87.20;;;45.90;;
40951;SDS011;26682;51.660;19.338;2023-02-11T14:52:54;96.32;;;49.13;;
40951;SDS011;26682;51.660;19.338;2023-02-11T14:55:40;90.20;;;47.75;;
40951;SDS011;26682;51.660;19.338;2023-02-11T14:58:26;93.85;;;49.75;;
40951;SDS011;26682;51.660;19.338;2023-02-11T15:01:23;90.65;;;48.45;;
40951;SDS011;26682;51.660;19.338;2023-02-11T15:04:22;92.07;;;48.42;;
40951;SDS011;26682;51.660;19.338;2023-02-11T15:07:05;91.30;;;49.40;;
40951;SDS011;26682;51.660;19.338;2023-02-11T15:09:50;89.70;;;46.25;;
40951;SDS011;26682;51.660;19.338;2023-02-11T15:12:34;102.78;;;51.65;;
40951;SDS011;26682;51.660;19.338;2023-02-11T15:15:18;92.25;;;48.65;;
40951;SDS011;26682;51.660;19.338;2023-02-11T15:18:00;83.50;;;42.95;;
40951;SDS011;26682;51.660;19.338;2023-02-11T15:20:45;84.25;;;43.95;;
40951;SDS011;26682;51.660;19.338;2023-02-11T15:23:29;93.13;;;47.95;;
40951;SDS011;26682;51.660;19.338;2023-02-11T15:26:13;78.15;;;44.95;;
40951;SDS011;26682;51.660;19.338;2023-02-11T15:28:55;95.68;;;48.60;;
40951;SDS011;26682;51.660;19.338;2023-02-11T15:31:38;92.78;;;49.03;;
40951;SDS011;26682;51.660;19.338;2023-02-11T15:34:21;80.70;;;45.53;;
40951;SDS011;26682;51.660;19.338;2023-02-11T15:37:03;76.20;;;40.83;;
40951;SDS011;26682;51.660;19.338;2023-02-11T15:39:46;72.53;;;40.78;;
40951;SDS011;26682;51.660;19.338;2023-02-11T15:42:29;71.63;;;40.95;;
40951;SDS011;26682;51.660;19.338;2023-02-11T15:48:44;76.32;;;41.78;;
40951;SDS011;26682;51.660;19.338;2023-02-11T15:51:49;69.35;;;38.53;;
40951;SDS011;26682;51.660;19.338;2023-02-11T15:54:33;69.82;;;39.67;;
40951;SDS011;26682;51.660;19.338;2023-02-11T15:57:15;82.18;;;45.92;;
40951;SDS011;26682;51.660;19.338;2023-02-11T15:59:58;73.82;;;41.00;;
40951;SDS011;26682;51.660;19.338;2023-02-11T16:02:52;72.15;;;40.03;;
40951;SDS011;26682;51.660;19.338;2023-02-11T16:05:36;73.88;;;41.67;;
40951;SDS011;26682;51.660;19.338;2023-02-11T16:08:26;75.95;;;44.70;;
40951;SDS011;26682;51.660;19.338;2023-02-11T16:11:28;71.57;;;41.28;;
40951;SDS011;26682;51.660;19.338;2023-02-11T16:17:11;73.20;;;38.97;;
40951;SDS011;26682;51.660;19.338;2023-02-11T16:20:05;75.78;;;43.60;;
40951;SDS011;26682;51.660;19.338;2023-02-11T16:22:58;70.60;;;39.58;;
40951;SDS011;26682;51.660;19.338;2023-02-11T16:25:43;70.97;;;41.97;;
40951;SDS011;26682;51.660;19.338;2023-02-11T16:28:25;77.63;;;44.10;;
40951;SDS011;26682;51.660;19.338;2023-02-11T16:31:09;77.63;;;42.38;;
40951;SDS011;26682;51.660;19.338;2023-02-11T16:33:52;82.15;;;45.58;;
40951;SDS011;26682;51.660;19.338;2023-02-11T16:36:34;76.95;;;41.45;;
40951;SDS011;26682;51.660;19.338;2023-02-11T16:39:17;82.15;;;43.78;;
40951;SDS011;26682;51.660;19.338;2023-02-11T16:42:04;86.88;;;44.97;;
40951;SDS011;26682;51.660;19.338;2023-02-11T16:44:49;77.82;;;41.80;;
40951;SDS011;26682;51.660;19.338;2023-02-11T16:47:32;70.13;;;39.95;;
40951;SDS011;26682;51.660;19.338;2023-02-11T16:50:20;69.40;;;40.35;;
40951;SDS011;26682;51.660;19.338;2023-02-11T16:53:04;70.32;;;39.50;;
40951;SDS011;26682;51.660;19.338;2023-02-11T16:55:47;63.13;;;39.50;;
40951;SDS011;26682;51.660;19.338;2023-02-11T16:58:30;66.68;;;37.75;;
40951;SDS011;26682;51.660;19.338;2023-02-11T17:01:12;70.90;;;38.95;;
40951;SDS011;26682;51.660;19.338;2023-02-11T17:03:55;70.93;;;41.30;;
40951;SDS011;26682;51.660;19.338;2023-02-11T17:06:38;69.85;;;41.15;;
40951;SDS011;26682;51.660;19.338;2023-02-11T17:09:22;76.63;;;42.85;;
40951;SDS011;26682;51.660;19.338;2023-02-11T17:12:11;88.20;;;47.20;;
40951;SDS011;26682;51.660;19.338;2023-02-11T17:14:54;72.15;;;40.85;;
40951;SDS011;26682;51.660;19.338;2023-02-11T17:17:36;83.32;;;50.58;;
40951;SDS011;26682;51.660;19.338;2023-02-11T17:20:19;71.28;;;41.42;;
40951;SDS011;26682;51.660;19.338;2023-02-11T17:23:02;69.15;;;38.72;;
40951;SDS011;26682;51.660;19.338;2023-02-11T17:25:44;72.68;;;41.13;;
40951;SDS011;26682;51.660;19.338;2023-02-11T17:28:27;96.25;;;50.95;;
40951;SDS011;26682;51.660;19.338;2023-02-11T17:31:10;72.13;;;40.50;;
40951;SDS011;26682;51.660;19.338;2023-02-11T17:33:53;76.38;;;43.50;;
40951;SDS011;26682;51.660;19.338;2023-02-11T17:36:35;106.60;;;54.30;;
40951;SDS011;26682;51.660;19.338;2023-02-11T17:39:18;85.93;;;45.90;;
40951;SDS011;26682;51.660;19.338;2023-02-11T17:42:02;89.55;;;46.50;;
40951;SDS011;26682;51.660;19.338;2023-02-11T17:44:46;86.53;;;46.63;;
40951;SDS011;26682;51.660;19.338;2023-02-11T17:47:29;92.05;;;48.33;;
40951;SDS011;26682;51.660;19.338;2023-02-11T17:50:11;66.38;;;36.38;;
40951;SDS011;26682;51.660;19.338;2023-02-11T17:52:54;82.22;;;42.88;;
40951;SDS011;26682;51.660;19.338;2023-02-11T17:55:36;84.65;;;45.88;;
40951;SDS011;26682;51.660;19.338;2023-02-11T17:58:19;73.18;;;40.45;;
40951;SDS011;26682;51.660;19.338;2023-02-11T18:01:01;71.63;;;42.05;;
40951;SDS011;26682;51.660;19.338;2023-02-11T18:03:44;89.78;;;49.20;;
40951;SDS011;26682;51.660;19.338;2023-02-11T18:06:26;79.95;;;45.45;;
40951;SDS011;26682;51.660;19.338;2023-02-11T18:09:10;79.35;;;46.53;;
40951;SDS011;26682;51.660;19.338;2023-02-11T18:11:53;72.90;;;40.17;;
40951;SDS011;26682;51.660;19.338;2023-02-11T18:14:38;69.45;;;40.72;;
40951;SDS011;26682;51.660;19.338;2023-02-11T18:20:04;110.72;;;54.20;;
40951;SDS011;26682;51.660;19.338;2023-02-11T18:22:48;91.43;;;47.53;;
40951;SDS011;26682;51.660;19.338;2023-02-11T18:25:30;86.47;;;47.33;;
40951;SDS011;26682;51.660;19.338;2023-02-11T18:28:13;74.13;;;42.58;;
40951;SDS011;26682;51.660;19.338;2023-02-11T18:30:58;76.18;;;42.70;;
40951;SDS011;26682;51.660;19.338;2023-02-11T18:36:25;85.35;;;43.67;;
40951;SDS011;26682;51.660;19.338;2023-02-11T18:39:08;78.07;;;42.15;;